createdAt,value
2022-08-25T00:00:13.506Z,25.58
2022-08-25T00:02:06.459Z,25.57
2022-08-25T00:03:39.593Z,25.52
2022-08-25T00:05:13.811Z,25.49
2022-08-25T00:06:47.584Z,25.46
2022-08-25T00:08:19.269Z,25.43
2022-08-25T00:09:51.215Z,25.39
2022-08-25T00:11:24.000Z,25.35
2022-08-25T00:12:55.743Z,25.32
2022-08-25T00:14:30.655Z,25.30
2022-08-25T00:16:02.537Z,25.31
2022-08-25T00:17:34.320Z,25.30
2022-08-25T00:19:07.903Z,25.32
2022-08-25T00:20:39.690Z,25.32
2022-08-25T00:22:15.128Z,25.31
2022-08-25T00:23:46.893Z,25.30
2022-08-25T00:25:18.920Z,25.31
2022-08-25T00:26:51.746Z,25.32
2022-08-25T00:28:23.888Z,25.33
2022-08-25T00:29:55.644Z,25.34
2022-08-25T00:31:38.464Z,25.35
2022-08-25T00:33:11.373Z,25.35
2022-08-25T00:34:43.158Z,25.35
2022-08-25T00:36:15.867Z,25.35
2022-08-25T00:37:47.618Z,25.35
2022-08-25T00:39:21.253Z,25.37
2022-08-25T00:41:06.134Z,25.38
2022-08-25T00:42:38.613Z,25.37
2022-08-25T00:44:11.579Z,25.36
2022-08-25T00:45:43.347Z,25.36
2022-08-25T00:47:15.085Z,25.36
2022-08-25T00:48:48.080Z,25.35
2022-08-25T00:50:20.009Z,25.36
2022-08-25T00:51:54.247Z,25.33
2022-08-25T00:53:25.949Z,25.31
2022-08-25T00:55:07.867Z,25.30
2022-08-25T00:56:39.926Z,25.30
2022-08-25T00:58:14.661Z,25.29
2022-08-25T00:59:46.492Z,25.29
2022-08-25T01:01:18.481Z,25.26
2022-08-25T01:02:50.821Z,25.24
2022-08-25T01:04:22.774Z,25.24
2022-08-25T01:05:54.905Z,25.23
2022-08-25T01:07:26.733Z,25.21
2022-08-25T01:08:58.814Z,25.20
2022-08-25T01:10:30.722Z,25.16
2022-08-25T01:12:02.624Z,25.16
2022-08-25T01:13:37.314Z,25.14
2022-08-25T01:15:10.142Z,25.13
2022-08-25T01:16:43.897Z,25.11
2022-08-25T01:18:15.734Z,25.10
2022-08-25T01:19:47.748Z,25.08
2022-08-25T01:21:20.304Z,25.07
2022-08-25T01:22:55.039Z,25.05
2022-08-25T01:24:31.645Z,25.05
2022-08-25T01:26:13.400Z,25.04
2022-08-25T01:27:45.210Z,25.02
2022-08-25T01:29:22.802Z,25.01
2022-08-25T01:30:54.662Z,24.98
2022-08-25T01:32:27.790Z,24.99
2022-08-25T01:33:59.737Z,24.98
2022-08-25T01:35:31.572Z,24.96
2022-08-25T01:37:03.769Z,24.93
2022-08-25T01:38:35.518Z,24.93
2022-08-25T01:40:07.630Z,24.90
2022-08-25T01:41:51.324Z,24.90
2022-08-25T01:43:30.931Z,24.88
2022-08-25T01:45:02.748Z,24.87
2022-08-25T01:46:34.949Z,24.86
2022-08-25T01:48:07.484Z,24.88
2022-08-25T01:49:39.303Z,24.90
2022-08-25T01:51:11.029Z,24.93
2022-08-25T01:52:55.760Z,24.91
2022-08-25T01:54:27.543Z,24.90
2022-08-25T01:56:02.742Z,24.89
2022-08-25T01:57:35.673Z,24.87
2022-08-25T01:59:07.382Z,24.86
2022-08-25T02:00:39.112Z,24.86
2022-08-25T02:02:10.966Z,24.87
2022-08-25T02:03:43.770Z,24.86
2022-08-25T02:05:18.491Z,24.84
2022-08-25T02:06:54.681Z,24.84
2022-08-25T02:08:26.463Z,24.80
2022-08-25T02:09:58.777Z,24.79
2022-08-25T02:11:35.994Z,24.74
2022-08-25T02:13:08.659Z,24.70
2022-08-25T02:14:40.840Z,24.65
2022-08-25T02:16:15.638Z,24.62
2022-08-25T02:17:47.331Z,24.61
2022-08-25T02:19:19.656Z,24.59
2022-08-25T02:20:51.465Z,24.61
2022-08-25T02:22:23.663Z,24.59
2022-08-25T02:23:55.526Z,24.57
2022-08-25T02:25:27.305Z,24.57
2022-08-25T02:26:59.581Z,24.56
2022-08-25T02:28:31.316Z,24.53
2022-08-25T02:30:04.481Z,24.52
2022-08-25T02:31:36.357Z,24.50
2022-08-25T02:33:08.927Z,24.50
2022-08-25T02:34:41.698Z,24.49
2022-08-25T02:36:14.468Z,24.49
2022-08-25T02:37:46.205Z,24.48
2022-08-25T02:39:17.965Z,24.46
2022-08-25T02:40:50.715Z,24.45
2022-08-25T02:42:22.606Z,24.42
2022-08-25T02:43:55.362Z,24.42
2022-08-25T02:45:27.213Z,24.41
2022-08-25T02:46:59.152Z,24.39
2022-08-25T02:48:31.127Z,24.38
2022-08-25T02:50:04.589Z,24.39
2022-08-25T02:51:36.758Z,24.38
2022-08-25T02:53:08.506Z,24.36
2022-08-25T02:54:40.417Z,24.34
2022-08-25T02:56:12.148Z,24.34
2022-08-25T02:57:44.010Z,24.34
2022-08-25T02:59:15.799Z,24.33
2022-08-25T03:00:51.426Z,24.34
2022-08-25T03:02:23.269Z,24.33
2022-08-25T03:03:55.089Z,24.31
2022-08-25T03:05:27.029Z,24.32
2022-08-25T03:06:59.294Z,24.31
2022-08-25T03:08:31.033Z,24.32
2022-08-25T03:10:13.598Z,24.33
2022-08-25T03:11:46.131Z,24.32
2022-08-25T03:13:18.138Z,24.31
2022-08-25T03:14:49.895Z,24.30
2022-08-25T03:16:22.176Z,24.29
2022-08-25T03:17:54.636Z,24.26
2022-08-25T03:19:26.774Z,24.26
2022-08-25T03:20:58.624Z,24.26
2022-08-25T03:22:30.391Z,24.22
2022-08-25T03:24:02.150Z,24.18
2022-08-25T03:26:06.086Z,24.13
2022-08-25T03:27:37.841Z,24.08
2022-08-25T03:29:10.565Z,24.04
2022-08-25T03:30:42.519Z,24.03
2022-08-25T03:32:14.204Z,23.99
2022-08-25T03:33:46.393Z,23.98
2022-08-25T03:35:18.208Z,23.97
2022-08-25T03:36:51.911Z,23.99
2022-08-25T03:38:24.068Z,23.97
2022-08-25T03:39:55.823Z,23.96
2022-08-25T03:41:34.909Z,23.95
2022-08-25T03:43:06.659Z,23.94
2022-08-25T03:44:38.320Z,23.91
2022-08-25T03:46:10.562Z,23.90
2022-08-25T03:47:42.589Z,23.89
2022-08-25T03:49:18.647Z,23.88
2022-08-25T03:50:51.702Z,23.86
2022-08-25T03:52:23.874Z,23.84
2022-08-25T03:53:55.782Z,23.84
2022-08-25T03:55:34.083Z,23.83
2022-08-25T03:57:06.548Z,23.80
2022-08-25T03:58:38.448Z,23.79
2022-08-25T04:00:10.534Z,23.77
2022-08-25T04:01:45.906Z,23.77
2022-08-25T04:03:18.032Z,23.76
2022-08-25T04:04:50.535Z,23.77
2022-08-25T04:06:22.601Z,23.77
2022-08-25T04:07:54.397Z,23.75
2022-08-25T04:09:26.315Z,23.73
2022-08-25T04:10:58.391Z,23.73
2022-08-25T04:12:30.135Z,23.71
2022-08-25T04:14:03.435Z,23.70
2022-08-25T04:15:35.279Z,23.68
2022-08-25T04:17:06.965Z,23.68
2022-08-25T04:18:39.187Z,23.67
2022-08-25T04:20:14.050Z,23.66
2022-08-25T04:21:46.254Z,23.67
2022-08-25T04:23:18.098Z,23.65
2022-08-25T04:24:50.014Z,23.66
2022-08-25T04:26:26.086Z,23.63
2022-08-25T04:27:57.976Z,23.63
2022-08-25T04:29:29.763Z,23.63
2022-08-25T04:31:01.579Z,23.63
2022-08-25T04:32:33.515Z,23.63
2022-08-25T04:34:14.800Z,23.63
2022-08-25T04:35:57.217Z,23.64
2022-08-25T04:37:28.968Z,23.64
2022-08-25T04:39:00.739Z,23.65
2022-08-25T04:40:32.706Z,23.64
2022-08-25T04:42:04.628Z,23.64
2022-08-25T04:43:38.637Z,23.65
2022-08-25T04:45:10.444Z,23.64
2022-08-25T04:46:42.276Z,23.65
2022-08-25T04:48:14.085Z,23.63
2022-08-25T04:49:45.878Z,23.62
2022-08-25T04:51:19.198Z,23.60
2022-08-25T04:52:50.978Z,23.59
2022-08-25T04:54:23.277Z,23.57
2022-08-25T04:55:55.014Z,23.56
2022-08-25T04:57:26.808Z,23.57
2022-08-25T04:59:01.577Z,23.57
2022-08-25T05:00:34.534Z,23.56
2022-08-25T05:02:06.836Z,23.54
2022-08-25T05:03:38.646Z,23.51
2022-08-25T05:05:10.445Z,23.49
2022-08-25T05:06:42.941Z,23.46
2022-08-25T05:08:16.807Z,23.44
2022-08-25T05:09:48.504Z,23.41
2022-08-25T05:11:23.552Z,23.41
2022-08-25T05:12:55.657Z,23.40
2022-08-25T05:14:27.521Z,23.39
2022-08-25T05:16:00.471Z,23.40
2022-08-25T05:17:32.979Z,23.40
2022-08-25T05:19:05.027Z,23.39
2022-08-25T05:20:37.788Z,23.37
2022-08-25T05:22:10.459Z,23.35
2022-08-25T05:23:42.361Z,23.33
2022-08-25T05:25:14.874Z,23.30
2022-08-25T05:26:46.703Z,23.29
2022-08-25T05:28:19.695Z,23.26
2022-08-25T05:29:51.469Z,23.26
2022-08-25T05:31:23.967Z,23.25
2022-08-25T05:32:55.910Z,23.24
2022-08-25T05:34:30.306Z,23.24
2022-08-25T05:36:02.474Z,23.26
2022-08-25T05:37:34.376Z,23.26
2022-08-25T05:39:06.271Z,23.27
2022-08-25T05:40:38.198Z,23.27
2022-08-25T05:42:09.980Z,23.28
2022-08-25T05:43:42.007Z,23.26
2022-08-25T05:45:20.291Z,23.26
2022-08-25T05:46:52.645Z,23.23
2022-08-25T05:48:24.937Z,23.24
2022-08-25T05:49:56.814Z,23.25
2022-08-25T05:51:30.967Z,23.25
2022-08-25T05:53:02.912Z,23.26
2022-08-25T05:54:34.715Z,23.26
2022-08-25T05:56:06.690Z,23.28
2022-08-25T05:57:38.511Z,23.28
2022-08-25T05:59:12.177Z,23.30
2022-08-25T06:00:44.002Z,23.30
2022-08-25T06:02:34.449Z,23.31
2022-08-25T06:04:06.648Z,23.32
2022-08-25T06:05:38.576Z,23.33
2022-08-25T06:07:10.460Z,23.33
2022-08-25T06:08:42.988Z,23.35
2022-08-25T06:10:15.111Z,23.37
2022-08-25T06:11:49.705Z,23.38
2022-08-25T06:13:28.862Z,23.40
2022-08-25T06:15:00.849Z,23.43
2022-08-25T06:16:33.140Z,23.44
2022-08-25T06:18:05.385Z,23.47
2022-08-25T06:19:37.197Z,23.49
2022-08-25T06:21:13.530Z,23.51
2022-08-25T06:22:45.390Z,23.53
2022-08-25T06:24:17.242Z,23.55
2022-08-25T06:25:49.747Z,23.58
2022-08-25T06:27:22.151Z,23.60
2022-08-25T06:28:54.080Z,23.62
2022-08-25T06:30:28.632Z,23.62
2022-08-25T06:32:01.102Z,23.65
2022-08-25T06:33:33.016Z,23.67
2022-08-25T06:35:05.235Z,23.71
2022-08-25T06:36:37.068Z,23.77
2022-08-25T06:38:08.837Z,23.78
2022-08-25T06:39:40.679Z,23.81
2022-08-25T06:41:12.833Z,23.85
2022-08-25T06:42:48.459Z,23.89
2022-08-25T06:44:21.295Z,23.94
2022-08-25T06:45:53.072Z,23.97
2022-08-25T06:47:25.056Z,24.02
2022-08-25T06:48:57.689Z,24.07
2022-08-25T06:50:29.617Z,24.13
2022-08-25T06:52:01.333Z,24.18
2022-08-25T06:53:33.121Z,24.21
2022-08-25T06:55:06.876Z,24.28
2022-08-25T06:56:40.073Z,24.34
2022-08-25T06:58:12.119Z,24.40
2022-08-25T06:59:43.889Z,24.48
2022-08-25T07:01:20.017Z,24.52
2022-08-25T07:02:52.227Z,24.60
2022-08-25T07:04:25.365Z,24.65
2022-08-25T07:05:57.907Z,24.70
2022-08-25T07:07:43.053Z,24.75
2022-08-25T07:09:16.061Z,24.82
2022-08-25T07:10:48.195Z,24.89
2022-08-25T07:12:20.831Z,24.92
2022-08-25T07:13:52.756Z,24.96
2022-08-25T07:15:24.578Z,25.04
2022-08-25T07:16:56.344Z,25.10
2022-08-25T07:18:28.448Z,25.23
2022-08-25T07:20:00.332Z,25.30
2022-08-25T07:21:35.679Z,25.39
2022-08-25T07:23:07.827Z,25.54
2022-08-25T07:24:39.585Z,25.65
2022-08-25T07:26:27.166Z,25.73
2022-08-25T07:28:04.271Z,25.79
2022-08-25T07:29:42.298Z,25.85
2022-08-25T07:31:14.634Z,25.94
2022-08-25T07:32:46.455Z,26.04
2022-08-25T07:34:45.511Z,26.06
2022-08-25T07:36:24.396Z,26.14
2022-08-25T07:37:59.008Z,26.12
2022-08-25T07:39:31.407Z,26.15
2022-08-25T07:41:04.035Z,26.19
2022-08-25T07:42:36.185Z,26.27
2022-08-25T07:44:10.653Z,26.34
2022-08-25T07:45:49.091Z,26.39
2022-08-25T07:47:21.624Z,26.40
2022-08-25T07:48:54.890Z,26.45
2022-08-25T07:50:26.928Z,26.52
2022-08-25T07:52:05.707Z,26.61
2022-08-25T07:53:38.462Z,26.69
2022-08-25T07:55:11.189Z,26.77
2022-08-25T07:56:43.910Z,26.86
2022-08-25T07:58:16.071Z,26.91
2022-08-25T07:59:48.156Z,26.97
2022-08-25T08:01:23.794Z,27.04
2022-08-25T08:02:56.569Z,27.12
2022-08-25T08:04:28.440Z,27.23
2022-08-25T08:06:01.111Z,27.29
2022-08-25T08:07:43.047Z,27.36
2022-08-25T08:09:16.396Z,27.40
2022-08-25T08:11:03.161Z,27.51
2022-08-25T08:12:36.420Z,27.60
2022-08-25T08:14:08.581Z,27.73
2022-08-25T08:15:42.246Z,27.84
2022-08-25T08:17:14.193Z,27.92
2022-08-25T08:18:48.131Z,28.03
2022-08-25T08:20:23.281Z,28.08
2022-08-25T08:21:55.449Z,28.12
2022-08-25T08:23:30.057Z,28.21
2022-08-25T08:25:02.052Z,28.28
2022-08-25T08:26:48.548Z,28.34
2022-08-25T08:28:27.964Z,28.37
2022-08-25T08:29:59.714Z,28.45
2022-08-25T08:31:31.443Z,28.55
2022-08-25T08:33:10.093Z,28.68
2022-08-25T08:34:43.425Z,28.80
2022-08-25T08:36:16.179Z,28.89
2022-08-25T08:37:48.235Z,28.99
2022-08-25T08:39:24.657Z,29.10
2022-08-25T08:41:22.925Z,29.25
2022-08-25T08:43:17.930Z,29.43
2022-08-25T08:45:02.005Z,29.52
2022-08-25T08:46:41.360Z,29.47
2022-08-25T08:48:13.137Z,29.43
2022-08-25T08:50:04.033Z,29.52
2022-08-25T08:51:38.676Z,29.62
2022-08-25T08:53:11.637Z,29.75
2022-08-25T08:54:43.340Z,29.82
2022-08-25T08:56:17.738Z,29.90
2022-08-25T08:57:51.938Z,29.92
2022-08-25T08:59:30.259Z,29.92
2022-08-25T09:01:03.200Z,29.99
2022-08-25T09:02:52.562Z,30.08
2022-08-25T09:04:33.670Z,30.16
2022-08-25T09:06:31.693Z,30.29
2022-08-25T09:08:06.114Z,30.42
2022-08-25T09:09:37.967Z,30.55
2022-08-25T09:11:16.136Z,30.70
2022-08-25T09:12:55.407Z,30.84
2022-08-25T09:14:42.424Z,30.92
2022-08-25T09:16:38.690Z,30.90
2022-08-25T09:18:17.357Z,31.05
2022-08-25T09:19:55.316Z,30.95
2022-08-25T09:21:30.408Z,31.11
2022-08-25T09:23:08.190Z,31.13
2022-08-25T09:24:45.908Z,31.26
2022-08-25T09:26:21.192Z,31.35
2022-08-25T09:27:59.728Z,31.46
2022-08-25T09:29:51.805Z,31.61
2022-08-25T09:31:29.789Z,31.85
2022-08-25T09:33:05.136Z,32.06
2022-08-25T09:34:37.438Z,31.98
2022-08-25T09:36:09.281Z,31.89
2022-08-25T09:37:41.375Z,31.89
2022-08-25T09:39:13.642Z,31.98
2022-08-25T09:40:47.478Z,32.09
2022-08-25T09:42:23.897Z,32.26
2022-08-25T09:43:55.901Z,32.43
2022-08-25T09:45:32.213Z,32.49
2022-08-25T09:47:03.926Z,32.51
2022-08-25T09:48:46.600Z,32.72
2022-08-25T09:50:20.345Z,33.00
2022-08-25T09:51:52.736Z,33.08
2022-08-25T09:53:24.954Z,32.93
2022-08-25T09:54:57.513Z,32.88
2022-08-25T09:56:31.954Z,32.80
2022-08-25T09:58:09.557Z,32.83
2022-08-25T09:59:41.450Z,32.87
2022-08-25T10:01:29.581Z,32.99
2022-08-25T10:03:12.682Z,33.11
2022-08-25T10:04:44.432Z,33.33
2022-08-25T10:06:18.649Z,33.52
2022-08-25T10:07:59.346Z,33.73
2022-08-25T10:09:54.479Z,33.82
2022-08-25T10:11:34.061Z,33.57
2022-08-25T10:13:12.846Z,33.56
2022-08-25T10:14:44.980Z,33.34
2022-08-25T10:16:36.458Z,33.36
2022-08-25T10:18:20.741Z,33.48
2022-08-25T10:19:53.291Z,33.60
2022-08-25T10:21:25.053Z,33.62
2022-08-25T10:23:10.358Z,33.66
2022-08-25T10:24:43.873Z,33.64
2022-08-25T10:26:34.835Z,33.77
2022-08-25T10:28:07.586Z,33.98
2022-08-25T10:29:40.842Z,34.21
2022-08-25T10:31:18.847Z,34.30
2022-08-25T10:33:02.595Z,34.22
2022-08-25T10:34:44.461Z,34.05
2022-08-25T10:36:23.848Z,34.12
2022-08-25T10:37:58.714Z,34.23
2022-08-25T10:39:41.560Z,34.24
2022-08-25T10:41:16.803Z,34.31
2022-08-25T10:43:02.439Z,34.28
2022-08-25T10:45:02.487Z,34.44
2022-08-25T10:46:39.104Z,34.55
2022-08-25T10:48:17.355Z,34.61
2022-08-25T10:49:50.448Z,34.70
2022-08-25T10:51:41.151Z,34.73
2022-08-25T10:53:13.503Z,34.58
2022-08-25T10:54:59.330Z,34.62
2022-08-25T10:56:36.948Z,34.41
2022-08-25T10:58:16.418Z,34.42
2022-08-25T10:59:48.302Z,34.60
2022-08-25T11:01:20.035Z,34.85
2022-08-25T11:03:06.870Z,35.06
2022-08-25T11:04:42.147Z,35.21
2022-08-25T11:06:18.984Z,35.24
2022-08-25T11:07:54.049Z,35.18
2022-08-25T11:09:28.452Z,34.97
2022-08-25T11:11:02.527Z,34.75
2022-08-25T11:12:38.733Z,34.53
2022-08-25T11:14:19.076Z,34.30
2022-08-25T11:16:13.649Z,34.13
2022-08-25T11:18:00.248Z,34.10
2022-08-25T11:19:38.440Z,34.28
2022-08-25T11:21:11.824Z,34.47
2022-08-25T11:22:50.920Z,34.67
2022-08-25T11:24:36.134Z,34.63
2022-08-25T11:26:13.310Z,34.54
2022-08-25T11:28:03.537Z,34.56
2022-08-25T11:29:36.983Z,34.48
2022-08-25T11:31:11.350Z,34.46
2022-08-25T11:32:44.792Z,34.41
2022-08-25T11:34:19.538Z,34.51
2022-08-25T11:35:59.724Z,34.59
2022-08-25T11:37:32.422Z,34.64
2022-08-25T11:39:23.144Z,34.73
2022-08-25T11:40:59.650Z,34.87
2022-08-25T11:42:38.276Z,34.93
2022-08-25T11:44:17.082Z,34.91
2022-08-25T11:45:55.103Z,34.94
2022-08-25T11:47:45.445Z,34.98
2022-08-25T11:49:23.546Z,35.11
2022-08-25T11:50:58.399Z,35.31
2022-08-25T11:52:32.919Z,35.31
2022-08-25T11:54:12.579Z,35.43
2022-08-25T11:55:46.567Z,35.50
2022-08-25T11:57:20.171Z,35.57
2022-08-25T11:58:52.315Z,35.56
2022-08-25T12:00:39.412Z,35.54
2022-08-25T12:02:28.296Z,35.56
2022-08-25T12:04:19.015Z,35.64
2022-08-25T12:05:52.503Z,35.78
2022-08-25T12:07:25.511Z,35.72
2022-08-25T12:09:00.043Z,35.80
2022-08-25T12:10:52.230Z,35.88
2022-08-25T12:12:30.166Z,35.88
2022-08-25T12:14:18.296Z,35.79
2022-08-25T12:15:50.083Z,35.73
2022-08-25T12:17:25.791Z,35.83
2022-08-25T12:19:17.516Z,36.02
2022-08-25T12:20:55.301Z,36.21
2022-08-25T12:22:32.556Z,36.39
2022-08-25T12:24:07.902Z,36.54
2022-08-25T12:25:39.901Z,36.55
2022-08-25T12:27:34.310Z,36.34
2022-08-25T12:29:15.111Z,36.32
2022-08-25T12:30:50.603Z,36.42
2022-08-25T12:32:40.779Z,36.57
2022-08-25T12:34:26.850Z,36.71
2022-08-25T12:35:59.212Z,36.84
2022-08-25T12:37:31.379Z,36.93
2022-08-25T12:39:17.875Z,37.07
2022-08-25T12:40:50.153Z,37.21
2022-08-25T12:42:26.416Z,37.36
2022-08-25T12:44:17.314Z,37.43
2022-08-25T12:45:53.122Z,37.37
2022-08-25T12:47:27.364Z,37.36
2022-08-25T12:49:21.003Z,37.16
2022-08-25T12:51:15.778Z,36.88
2022-08-25T12:52:47.628Z,36.92
2022-08-25T12:54:24.694Z,36.96
2022-08-25T12:56:08.845Z,37.03
2022-08-25T12:57:46.248Z,36.72
2022-08-25T12:59:19.618Z,36.51
2022-08-25T13:00:57.978Z,36.23
2022-08-25T13:02:37.650Z,36.01
2022-08-25T13:04:13.768Z,36.08
2022-08-25T13:06:02.196Z,36.09
2022-08-25T13:07:42.815Z,36.11
2022-08-25T13:09:14.673Z,36.17
2022-08-25T13:10:46.352Z,36.24
2022-08-25T13:12:20.228Z,36.28
2022-08-25T13:13:55.437Z,36.34
2022-08-25T13:15:38.477Z,36.41
2022-08-25T13:17:10.526Z,36.43
2022-08-25T13:18:42.443Z,36.40
2022-08-25T13:20:24.114Z,36.28
2022-08-25T13:21:56.272Z,36.22
2022-08-25T13:23:29.255Z,36.21
2022-08-25T13:25:01.198Z,36.25
2022-08-25T13:26:48.219Z,36.27
2022-08-25T13:28:21.873Z,36.33
2022-08-25T13:29:55.223Z,36.42
2022-08-25T13:31:30.251Z,36.56
2022-08-25T13:33:20.521Z,36.72
2022-08-25T13:34:54.447Z,36.88
2022-08-25T13:36:52.078Z,37.04
2022-08-25T13:38:28.438Z,37.27
2022-08-25T13:40:07.460Z,37.38
2022-08-25T13:41:49.777Z,37.44
2022-08-25T13:43:27.806Z,37.49
2022-08-25T13:44:59.588Z,37.47
2022-08-25T13:46:32.450Z,37.51
2022-08-25T13:48:07.884Z,37.60
2022-08-25T13:49:56.610Z,37.60
2022-08-25T13:51:31.105Z,37.53
2022-08-25T13:53:23.029Z,37.35
2022-08-25T13:55:00.980Z,37.01
2022-08-25T13:56:41.473Z,36.86
2022-08-25T13:58:15.216Z,36.71
2022-08-25T13:59:58.539Z,36.63
2022-08-25T14:01:48.499Z,36.62
2022-08-25T14:03:39.266Z,36.65
2022-08-25T14:05:29.815Z,36.63
2022-08-25T14:07:20.403Z,36.66
2022-08-25T14:08:54.790Z,36.73
2022-08-25T14:10:35.452Z,36.76
2022-08-25T14:12:10.358Z,36.76
2022-08-25T14:13:45.486Z,36.77
2022-08-25T14:15:17.290Z,36.76
2022-08-25T14:16:50.534Z,36.80
2022-08-25T14:18:28.284Z,36.78
2022-08-25T14:20:00.208Z,36.81
2022-08-25T14:21:33.153Z,36.80
2022-08-25T14:23:07.876Z,36.83
2022-08-25T14:24:42.179Z,36.90
2022-08-25T14:26:14.726Z,37.01
2022-08-25T14:28:06.385Z,37.11
2022-08-25T14:29:41.212Z,37.27
2022-08-25T14:31:15.059Z,37.20
2022-08-25T14:32:46.804Z,37.17
2022-08-25T14:34:26.458Z,37.19
2022-08-25T14:36:02.644Z,36.89
2022-08-25T14:37:34.767Z,36.74
2022-08-25T14:39:08.881Z,36.73
2022-08-25T14:40:41.000Z,36.72
2022-08-25T14:42:13.357Z,36.76
2022-08-25T14:43:45.457Z,36.84
2022-08-25T14:45:17.752Z,36.95
2022-08-25T14:46:50.735Z,37.08
2022-08-25T14:48:27.248Z,37.19
2022-08-25T14:49:59.111Z,37.17
2022-08-25T14:51:32.693Z,37.07
2022-08-25T14:53:04.557Z,36.96
2022-08-25T14:54:37.667Z,37.00
2022-08-25T14:56:10.435Z,37.06
2022-08-25T14:57:42.392Z,37.14
2022-08-25T14:59:14.368Z,37.23
2022-08-25T15:00:46.411Z,37.22
2022-08-25T15:02:20.323Z,37.19
2022-08-25T15:03:53.002Z,37.19
2022-08-25T15:05:28.309Z,37.18
2022-08-25T15:07:01.345Z,37.23
2022-08-25T15:08:53.259Z,37.26
2022-08-25T15:10:25.933Z,37.24
2022-08-25T15:11:58.207Z,37.15
2022-08-25T15:13:29.972Z,37.09
2022-08-25T15:15:02.905Z,37.04
2022-08-25T15:16:35.500Z,36.96
2022-08-25T15:18:07.473Z,36.93
2022-08-25T15:19:39.344Z,36.87
2022-08-25T15:21:11.043Z,36.84
2022-08-25T15:22:42.878Z,36.80
2022-08-25T15:24:17.346Z,36.78
2022-08-25T15:25:52.658Z,36.80
2022-08-25T15:27:24.790Z,36.86
2022-08-25T15:29:02.777Z,36.89
2022-08-25T15:30:35.221Z,36.99
2022-08-25T15:32:07.363Z,37.05
2022-08-25T15:33:39.413Z,37.10
2022-08-25T15:35:11.173Z,37.15
2022-08-25T15:36:47.257Z,37.14
2022-08-25T15:38:20.734Z,37.16
2022-08-25T15:39:52.586Z,37.20
2022-08-25T15:41:27.749Z,37.24
2022-08-25T15:42:59.740Z,37.23
2022-08-25T15:44:31.774Z,37.17
2022-08-25T15:46:04.089Z,37.18
2022-08-25T15:47:36.085Z,37.15
2022-08-25T15:49:08.117Z,37.19
2022-08-25T15:50:40.167Z,37.21
2022-08-25T15:52:13.795Z,37.24
2022-08-25T15:53:48.004Z,37.28
2022-08-25T15:55:20.126Z,37.30
2022-08-25T15:56:52.054Z,37.14
2022-08-25T15:58:24.477Z,37.12
2022-08-25T15:59:56.734Z,37.18
2022-08-25T16:01:30.492Z,37.24
2022-08-25T16:03:03.099Z,37.31
2022-08-25T16:04:36.351Z,37.37
2022-08-25T16:06:08.530Z,37.33
2022-08-25T16:07:40.362Z,37.37
2022-08-25T16:09:12.140Z,37.42
2022-08-25T16:10:44.004Z,37.39
2022-08-25T16:12:15.800Z,37.37
2022-08-25T16:13:48.701Z,37.35
2022-08-25T16:15:24.027Z,37.26
2022-08-25T16:17:00.689Z,36.95
2022-08-25T16:18:32.481Z,36.69
2022-08-25T16:20:05.240Z,36.64
2022-08-25T16:21:42.196Z,36.70
2022-08-25T16:23:19.627Z,36.73
2022-08-25T16:24:51.713Z,36.71
2022-08-25T16:26:24.135Z,36.73
2022-08-25T16:27:56.379Z,36.75
2022-08-25T16:29:29.311Z,36.75
2022-08-25T16:31:10.966Z,36.78
2022-08-25T16:32:42.759Z,36.80
2022-08-25T16:34:15.259Z,36.78
2022-08-25T16:35:47.614Z,36.75
2022-08-25T16:37:21.572Z,36.76
2022-08-25T16:38:55.237Z,36.73
2022-08-25T16:40:27.277Z,36.68
2022-08-25T16:41:59.113Z,36.62
2022-08-25T16:43:30.887Z,36.47
2022-08-25T16:45:03.115Z,36.39
2022-08-25T16:46:37.546Z,36.31
2022-08-25T16:48:09.495Z,36.22
2022-08-25T16:49:41.577Z,36.11
2022-08-25T16:51:15.182Z,36.01
2022-08-25T16:53:07.940Z,35.91
2022-08-25T16:54:58.849Z,35.82
2022-08-25T16:56:30.903Z,35.80
2022-08-25T16:58:05.430Z,35.75
2022-08-25T16:59:37.562Z,35.71
2022-08-25T17:01:11.592Z,35.64
2022-08-25T17:02:43.536Z,35.56
2022-08-25T17:04:17.063Z,35.58
2022-08-25T17:05:49.720Z,35.54
2022-08-25T17:07:23.648Z,35.51
2022-08-25T17:08:56.224Z,35.47
2022-08-25T17:10:28.716Z,35.47
2022-08-25T17:12:00.556Z,35.39
2022-08-25T17:13:32.372Z,35.36
2022-08-25T17:15:06.146Z,35.29
2022-08-25T17:16:38.174Z,35.17
2022-08-25T17:18:11.079Z,35.11
2022-08-25T17:19:46.060Z,35.10
2022-08-25T17:21:24.367Z,35.07
2022-08-25T17:22:56.493Z,35.01
2022-08-25T17:24:29.441Z,34.93
2022-08-25T17:26:04.291Z,34.88
2022-08-25T17:27:36.758Z,34.82
2022-08-25T17:29:09.018Z,34.79
2022-08-25T17:30:41.742Z,34.79
2022-08-25T17:32:13.630Z,34.77
2022-08-25T17:33:46.165Z,34.69
2022-08-25T17:35:20.857Z,34.63
2022-08-25T17:36:54.698Z,34.56
2022-08-25T17:38:27.438Z,34.53
2022-08-25T17:40:03.011Z,34.51
2022-08-25T17:41:37.621Z,34.45
2022-08-25T17:43:10.230Z,34.42
2022-08-25T17:44:42.204Z,34.35
2022-08-25T17:46:14.099Z,34.31
2022-08-25T17:47:46.374Z,34.28
2022-08-25T17:49:18.358Z,34.23
2022-08-25T17:50:50.267Z,34.21
2022-08-25T17:52:25.418Z,34.10
2022-08-25T17:53:57.409Z,34.05
2022-08-25T17:55:29.748Z,34.03
2022-08-25T17:57:01.716Z,34.00
2022-08-25T17:58:33.668Z,33.96
2022-08-25T18:00:10.846Z,33.92
2022-08-25T18:01:45.465Z,33.86
2022-08-25T18:03:17.337Z,33.83
2022-08-25T18:04:49.040Z,33.80
2022-08-25T18:06:21.267Z,33.77
2022-08-25T18:07:54.085Z,33.73
2022-08-25T18:09:25.857Z,33.67
2022-08-25T18:10:58.136Z,33.66
2022-08-25T18:12:30.017Z,33.62
2022-08-25T18:14:01.938Z,33.60
2022-08-25T18:15:34.123Z,33.56
2022-08-25T18:17:06.181Z,33.51
2022-08-25T18:18:38.641Z,33.47
2022-08-25T18:20:11.754Z,33.43
2022-08-25T18:21:43.697Z,33.40
2022-08-25T18:23:15.728Z,33.33
2022-08-25T18:24:48.203Z,33.29
2022-08-25T18:26:21.951Z,33.24
2022-08-25T18:27:57.495Z,33.18
2022-08-25T18:29:30.097Z,33.14
2022-08-25T18:31:01.902Z,33.10
2022-08-25T18:32:33.793Z,33.06
2022-08-25T18:34:09.529Z,33.01
2022-08-25T18:35:42.071Z,32.97
2022-08-25T18:37:32.575Z,32.91
2022-08-25T18:39:23.599Z,32.85
2022-08-25T18:40:58.971Z,32.79
2022-08-25T18:42:30.779Z,32.74
2022-08-25T18:44:02.789Z,32.70
2022-08-25T18:45:49.592Z,32.64
2022-08-25T18:47:23.896Z,32.57
2022-08-25T18:48:55.862Z,32.51
2022-08-25T18:50:31.976Z,32.45
2022-08-25T18:52:03.865Z,32.39
2022-08-25T18:53:37.377Z,32.32
2022-08-25T18:55:09.502Z,32.25
2022-08-25T18:56:41.317Z,32.16
2022-08-25T18:58:14.436Z,32.11
2022-08-25T18:59:46.258Z,32.06
2022-08-25T19:01:19.106Z,32.00
2022-08-25T19:02:51.997Z,31.95
2022-08-25T19:04:31.393Z,31.90
2022-08-25T19:06:03.843Z,31.84
2022-08-25T19:07:36.223Z,31.78
2022-08-25T19:09:12.169Z,31.76
2022-08-25T19:10:45.150Z,31.70
2022-08-25T19:12:22.451Z,31.60
2022-08-25T19:13:55.162Z,31.50
2022-08-25T19:15:27.037Z,31.38
2022-08-25T19:16:59.439Z,31.27
2022-08-25T19:18:33.265Z,31.21
2022-08-25T19:20:11.171Z,31.06
2022-08-25T19:21:43.560Z,31.02
2022-08-25T19:23:15.503Z,30.94
2022-08-25T19:24:47.434Z,30.87
2022-08-25T19:26:19.340Z,30.81
2022-08-25T19:27:51.445Z,30.78
2022-08-25T19:29:23.700Z,30.69
2022-08-25T19:30:55.507Z,30.62
2022-08-25T19:32:27.871Z,30.58
2022-08-25T19:33:59.546Z,30.55
2022-08-25T19:35:31.989Z,30.50
2022-08-25T19:37:04.604Z,30.46
2022-08-25T19:38:37.037Z,30.42
2022-08-25T19:40:09.455Z,30.39
2022-08-25T19:41:43.468Z,30.38
2022-08-25T19:43:15.448Z,30.33
2022-08-25T19:44:49.342Z,30.28
2022-08-25T19:46:21.710Z,30.24
2022-08-25T19:47:53.614Z,30.19
2022-08-25T19:49:27.432Z,30.15
2022-08-25T19:51:03.769Z,30.11
2022-08-25T19:52:36.452Z,30.09
2022-08-25T19:54:09.276Z,30.06
2022-08-25T19:55:42.949Z,30.04
2022-08-25T19:57:27.907Z,30.01
2022-08-25T19:59:07.154Z,29.96
2022-08-25T20:00:40.468Z,29.92
2022-08-25T20:02:15.139Z,29.90
2022-08-25T20:03:47.550Z,29.86
2022-08-25T20:05:23.588Z,29.80
2022-08-25T20:06:56.014Z,29.74
2022-08-25T20:08:29.877Z,29.70
2022-08-25T20:10:02.444Z,29.65
2022-08-25T20:11:35.538Z,29.63
2022-08-25T20:13:07.631Z,29.58
2022-08-25T20:14:39.630Z,29.55
2022-08-25T20:16:11.447Z,29.52
2022-08-25T20:17:43.495Z,29.47
2022-08-25T20:19:16.903Z,29.44
2022-08-25T20:20:49.073Z,29.42
2022-08-25T20:22:25.896Z,29.39
2022-08-25T20:24:17.191Z,29.35